sensor_id;sensor_type;location;lat;lon;timestamp;temperature;humidity
21019;DHT22;10667;51.056;3.732;2022-12-18T00:02:16;-0.70;99.90
21019;DHT22;10667;51.056;3.732;2022-12-18T00:04:42;-0.80;99.90
21019;DHT22;10667;51.056;3.732;2022-12-18T00:07:08;-0.80;99.90
21019;DHT22;10667;51.056;3.732;2022-12-18T00:09:34;-0.90;99.90
21019;DHT22;10667;51.056;3.732;2022-12-18T00:11:59;-0.90;99.90
21019;DHT22;10667;51.056;3.732;2022-12-18T00:14:25;-0.90;99.90
21019;DHT22;10667;51.056;3.732;2022-12-18T00:16:51;-0.90;99.90
21019;DHT22;10667;51.056;3.732;2022-12-18T00:19:16;-0.90;99.90
21019;DHT22;10667;51.056;3.732;2022-12-18T00:21:43;-1.00;99.90
21019;DHT22;10667;51.056;3.732;2022-12-18T00:24:10;-1.10;99.90
21019;DHT22;10667;51.056;3.732;2022-12-18T00:26:37;-1.10;99.90
21019;DHT22;10667;51.056;3.732;2022-12-18T00:29:07;-1.10;99.90
21019;DHT22;10667;51.056;3.732;2022-12-18T00:31:33;-1.10;99.90
21019;DHT22;10667;51.056;3.732;2022-12-18T00:33:59;-1.10;99.90
21019;DHT22;10667;51.056;3.732;2022-12-18T00:36:27;-1.10;99.90
21019;DHT22;10667;51.056;3.732;2022-12-18T00:38:54;-1.10;99.90
21019;DHT22;10667;51.056;3.732;2022-12-18T00:41:21;-1.20;99.90
21019;DHT22;10667;51.056;3.732;2022-12-18T00:44:06;-1.20;99.90
21019;DHT22;10667;51.056;3.732;2022-12-18T00:46:32;-1.20;99.90
21019;DHT22;10667;51.056;3.732;2022-12-18T00:48:58;-1.30;99.90
21019;DHT22;10667;51.056;3.732;2022-12-18T00:51:24;-1.40;99.90
21019;DHT22;10667;51.056;3.732;2022-12-18T00:53:51;-1.50;99.90
21019;DHT22;10667;51.056;3.732;2022-12-18T00:56:17;-1.50;99.90
21019;DHT22;10667;51.056;3.732;2022-12-18T00:58:42;-1.50;99.90
21019;DHT22;10667;51.056;3.732;2022-12-18T01:01:08;-1.50;99.90
21019;DHT22;10667;51.056;3.732;2022-12-18T01:03:34;-1.50;99.90
21019;DHT22;10667;51.056;3.732;2022-12-18T01:06:04;-1.60;99.90
21019;DHT22;10667;51.056;3.732;2022-12-18T01:08:30;-1.50;99.90
21019;DHT22;10667;51.056;3.732;2022-12-18T01:10:55;-1.50;99.90
21019;DHT22;10667;51.056;3.732;2022-12-18T01:13:21;-1.50;99.90
21019;DHT22;10667;51.056;3.732;2022-12-18T01:15:50;-1.50;99.90
21019;DHT22;10667;51.056;3.732;2022-12-18T01:18:16;-1.40;99.90
21019;DHT22;10667;51.056;3.732;2022-12-18T01:20:42;-1.40;99.90
21019;DHT22;10667;51.056;3.732;2022-12-18T01:23:08;-1.40;99.90
21019;DHT22;10667;51.056;3.732;2022-12-18T01:25:36;-1.40;99.90
21019;DHT22;10667;51.056;3.732;2022-12-18T01:28:02;-1.40;99.90
21019;DHT22;10667;51.056;3.732;2022-12-18T01:30:28;-1.40;99.90
21019;DHT22;10667;51.056;3.732;2022-12-18T01:32:53;-1.30;99.90
21019;DHT22;10667;51.056;3.732;2022-12-18T01:35:19;-1.30;99.90
21019;DHT22;10667;51.056;3.732;2022-12-18T01:37:45;-1.30;99.90
21019;DHT22;10667;51.056;3.732;2022-12-18T01:40:10;-1.30;99.90
21019;DHT22;10667;51.056;3.732;2022-12-18T01:42:36;-1.30;99.90
21019;DHT22;10667;51.056;3.732;2022-12-18T01:52:34;-1.40;99.90
21019;DHT22;10667;51.056;3.732;2022-12-18T01:55:02;-1.40;99.90
21019;DHT22;10667;51.056;3.732;2022-12-18T01:57:30;-1.40;99.90
21019;DHT22;10667;51.056;3.732;2022-12-18T02:00:00;-1.40;99.90
21019;DHT22;10667;51.056;3.732;2022-12-18T02:02:28;-1.30;99.90
21019;DHT22;10667;51.056;3.732;2022-12-18T02:04:54;-1.40;99.90
21019;DHT22;10667;51.056;3.732;2022-12-18T02:12:56;-1.40;99.90
21019;DHT22;10667;51.056;3.732;2022-12-18T02:15:36;-1.40;99.90
21019;DHT22;10667;51.056;3.732;2022-12-18T02:18:20;-1.50;99.90
21019;DHT22;10667;51.056;3.732;2022-12-18T02:28:50;-1.70;99.90
21019;DHT22;10667;51.056;3.732;2022-12-18T02:31:22;-1.70;99.90
21019;DHT22;10667;51.056;3.732;2022-12-18T02:33:50;-1.70;99.90
21019;DHT22;10667;51.056;3.732;2022-12-18T02:36:17;-1.70;99.90
21019;DHT22;10667;51.056;3.732;2022-12-18T02:38:44;-1.70;99.90
21019;DHT22;10667;51.056;3.732;2022-12-18T02:41:11;-1.60;99.90
21019;DHT22;10667;51.056;3.732;2022-12-18T02:43:38;-1.70;99.90
21019;DHT22;10667;51.056;3.732;2022-12-18T02:48:54;-1.70;99.90
21019;DHT22;10667;51.056;3.732;2022-12-18T02:51:37;-1.60;99.90
21019;DHT22;10667;51.056;3.732;2022-12-18T02:54:10;-1.70;99.90
21019;DHT22;10667;51.056;3.732;2022-12-18T02:56:49;-1.70;99.90
21019;DHT22;10667;51.056;3.732;2022-12-18T02:59:21;-1.70;99.90
21019;DHT22;10667;51.056;3.732;2022-12-18T03:02:04;-1.80;99.90
21019;DHT22;10667;51.056;3.732;2022-12-18T03:05:10;-1.80;99.90
21019;DHT22;10667;51.056;3.732;2022-12-18T03:07:52;-1.80;99.90
21019;DHT22;10667;51.056;3.732;2022-12-18T03:10:24;-1.80;99.90
21019;DHT22;10667;51.056;3.732;2022-12-18T03:13:06;-1.80;99.90
21019;DHT22;10667;51.056;3.732;2022-12-18T03:15:47;-1.80;99.90
21019;DHT22;10667;51.056;3.732;2022-12-18T03:18:18;-1.80;99.90
21019;DHT22;10667;51.056;3.732;2022-12-18T03:20:47;-1.80;99.90
21019;DHT22;10667;51.056;3.732;2022-12-18T03:23:19;-1.70;99.90
21019;DHT22;10667;51.056;3.732;2022-12-18T03:25:47;-1.70;99.90
21019;DHT22;10667;51.056;3.732;2022-12-18T03:28:20;-1.70;99.90
21019;DHT22;10667;51.056;3.732;2022-12-18T03:30:49;-1.70;99.90
21019;DHT22;10667;51.056;3.732;2022-12-18T03:33:19;-1.70;99.90
21019;DHT22;10667;51.056;3.732;2022-12-18T03:35:47;-1.70;99.90
21019;DHT22;10667;51.056;3.732;2022-12-18T03:38:13;-1.80;99.90
21019;DHT22;10667;51.056;3.732;2022-12-18T03:43:19;-1.80;99.90
21019;DHT22;10667;51.056;3.732;2022-12-18T03:45:54;-1.80;99.90
21019;DHT22;10667;51.056;3.732;2022-12-18T03:48:41;-1.80;99.90
21019;DHT22;10667;51.056;3.732;2022-12-18T03:51:17;-1.80;99.90
21019;DHT22;10667;51.056;3.732;2022-12-18T03:54:00;-1.80;99.90
21019;DHT22;10667;51.056;3.732;2022-12-18T03:56:31;-1.80;99.90
21019;DHT22;10667;51.056;3.732;2022-12-18T03:59:00;-1.80;99.90
21019;DHT22;10667;51.056;3.732;2022-12-18T04:01:47;-1.70;99.90
21019;DHT22;10667;51.056;3.732;2022-12-18T04:04:15;-1.70;99.90
21019;DHT22;10667;51.056;3.732;2022-12-18T04:06:42;-1.70;99.90
21019;DHT22;10667;51.056;3.732;2022-12-18T04:09:09;-1.80;99.90
21019;DHT22;10667;51.056;3.732;2022-12-18T04:11:35;-1.80;99.90
21019;DHT22;10667;51.056;3.732;2022-12-18T04:14:00;-1.80;99.90
21019;DHT22;10667;51.056;3.732;2022-12-18T04:16:27;-1.80;99.90
21019;DHT22;10667;51.056;3.732;2022-12-18T04:18:53;-1.90;99.90
21019;DHT22;10667;51.056;3.732;2022-12-18T04:21:19;-1.80;99.90
21019;DHT22;10667;51.056;3.732;2022-12-18T04:23:45;-1.90;99.90
21019;DHT22;10667;51.056;3.732;2022-12-18T04:26:11;-1.90;99.90
21019;DHT22;10667;51.056;3.732;2022-12-18T04:28:37;-1.90;99.90
21019;DHT22;10667;51.056;3.732;2022-12-18T04:31:02;-1.90;99.90
21019;DHT22;10667;51.056;3.732;2022-12-18T04:33:28;-1.90;99.90
21019;DHT22;10667;51.056;3.732;2022-12-18T04:35:54;-1.90;99.90
21019;DHT22;10667;51.056;3.732;2022-12-18T04:38:19;-1.90;99.90
21019;DHT22;10667;51.056;3.732;2022-12-18T04:40:45;-1.90;99.90
21019;DHT22;10667;51.056;3.732;2022-12-18T04:43:11;-2.00;99.90
21019;DHT22;10667;51.056;3.732;2022-12-18T04:45:36;-2.00;99.90
21019;DHT22;10667;51.056;3.732;2022-12-18T04:48:03;-2.00;99.90
21019;DHT22;10667;51.056;3.732;2022-12-18T04:50:29;-2.00;99.90
21019;DHT22;10667;51.056;3.732;2022-12-18T04:52:55;-2.00;99.90
21019;DHT22;10667;51.056;3.732;2022-12-18T04:55:21;-2.10;99.90
21019;DHT22;10667;51.056;3.732;2022-12-18T04:57:46;-2.00;99.90
21019;DHT22;10667;51.056;3.732;2022-12-18T05:00:12;-2.10;99.90
21019;DHT22;10667;51.056;3.732;2022-12-18T05:02:38;-2.10;99.90
21019;DHT22;10667;51.056;3.732;2022-12-18T05:05:04;-2.00;99.90
21019;DHT22;10667;51.056;3.732;2022-12-18T05:07:30;-2.00;99.90
21019;DHT22;10667;51.056;3.732;2022-12-18T05:09:56;-2.00;99.90
21019;DHT22;10667;51.056;3.732;2022-12-18T05:12:24;-2.00;99.90
21019;DHT22;10667;51.056;3.732;2022-12-18T05:14:50;-1.90;99.90
21019;DHT22;10667;51.056;3.732;2022-12-18T05:17:16;-1.90;99.90
21019;DHT22;10667;51.056;3.732;2022-12-18T05:19:41;-1.90;99.90
21019;DHT22;10667;51.056;3.732;2022-12-18T05:22:07;-1.90;99.90
21019;DHT22;10667;51.056;3.732;2022-12-18T05:24:33;-1.90;99.90
21019;DHT22;10667;51.056;3.732;2022-12-18T05:26:59;-1.90;99.90
21019;DHT22;10667;51.056;3.732;2022-12-18T05:29:24;-1.90;99.90
21019;DHT22;10667;51.056;3.732;2022-12-18T05:31:50;-1.80;99.90
21019;DHT22;10667;51.056;3.732;2022-12-18T05:34:16;-1.90;99.90
21019;DHT22;10667;51.056;3.732;2022-12-18T05:36:42;-1.90;99.90
21019;DHT22;10667;51.056;3.732;2022-12-18T05:39:07;-1.90;99.90
21019;DHT22;10667;51.056;3.732;2022-12-18T05:41:33;-1.90;99.90
21019;DHT22;10667;51.056;3.732;2022-12-18T05:43:59;-1.80;99.90
21019;DHT22;10667;51.056;3.732;2022-12-18T05:46:25;-1.80;99.90
21019;DHT22;10667;51.056;3.732;2022-12-18T05:48:50;-1.80;99.90
21019;DHT22;10667;51.056;3.732;2022-12-18T05:51:18;-1.80;99.90
21019;DHT22;10667;51.056;3.732;2022-12-18T05:53:45;-1.80;99.90
21019;DHT22;10667;51.056;3.732;2022-12-18T05:56:13;-1.90;99.90
21019;DHT22;10667;51.056;3.732;2022-12-18T05:58:40;-1.80;99.90
21019;DHT22;10667;51.056;3.732;2022-12-18T06:03:37;-1.80;99.90
21019;DHT22;10667;51.056;3.732;2022-12-18T06:06:03;-1.80;99.90
21019;DHT22;10667;51.056;3.732;2022-12-18T06:08:28;-1.80;99.90
21019;DHT22;10667;51.056;3.732;2022-12-18T06:10:54;-1.80;99.90
21019;DHT22;10667;51.056;3.732;2022-12-18T06:13:20;-1.70;99.90
21019;DHT22;10667;51.056;3.732;2022-12-18T06:15:46;-1.70;99.90
21019;DHT22;10667;51.056;3.732;2022-12-18T06:18:12;-1.80;99.90
21019;DHT22;10667;51.056;3.732;2022-12-18T06:20:37;-1.80;99.90
21019;DHT22;10667;51.056;3.732;2022-12-18T06:23:05;-1.90;99.90
21019;DHT22;10667;51.056;3.732;2022-12-18T06:25:32;-1.90;99.90
21019;DHT22;10667;51.056;3.732;2022-12-18T06:27:58;-2.00;99.90
21019;DHT22;10667;51.056;3.732;2022-12-18T06:30:24;-2.00;99.90
21019;DHT22;10667;51.056;3.732;2022-12-18T06:32:50;-2.00;99.90
21019;DHT22;10667;51.056;3.732;2022-12-18T06:35:15;-2.00;99.90
21019;DHT22;10667;51.056;3.732;2022-12-18T06:37:41;-2.00;99.90
21019;DHT22;10667;51.056;3.732;2022-12-18T06:40:07;-2.00;99.90
21019;DHT22;10667;51.056;3.732;2022-12-18T06:42:33;-1.90;99.90
21019;DHT22;10667;51.056;3.732;2022-12-18T06:44:59;-1.90;99.90
21019;DHT22;10667;51.056;3.732;2022-12-18T06:47:24;-1.90;99.90
21019;DHT22;10667;51.056;3.732;2022-12-18T06:49:50;-2.00;99.90
21019;DHT22;10667;51.056;3.732;2022-12-18T06:52:16;-2.00;99.90
21019;DHT22;10667;51.056;3.732;2022-12-18T06:54:41;-2.00;99.90
21019;DHT22;10667;51.056;3.732;2022-12-18T06:57:07;-2.00;99.90
21019;DHT22;10667;51.056;3.732;2022-12-18T06:59:32;-2.00;99.90
21019;DHT22;10667;51.056;3.732;2022-12-18T07:01:58;-1.90;99.90
21019;DHT22;10667;51.056;3.732;2022-12-18T07:04:28;-1.90;99.90
21019;DHT22;10667;51.056;3.732;2022-12-18T07:06:54;-1.90;99.90
21019;DHT22;10667;51.056;3.732;2022-12-18T07:09:20;-1.90;99.90
21019;DHT22;10667;51.056;3.732;2022-12-18T07:11:46;-2.00;99.90
21019;DHT22;10667;51.056;3.732;2022-12-18T07:14:11;-2.00;99.90
21019;DHT22;10667;51.056;3.732;2022-12-18T07:16:37;-2.00;99.90
21019;DHT22;10667;51.056;3.732;2022-12-18T07:19:02;-2.00;99.90
21019;DHT22;10667;51.056;3.732;2022-12-18T07:21:28;-2.00;99.90
21019;DHT22;10667;51.056;3.732;2022-12-18T07:23:54;-2.10;99.90
21019;DHT22;10667;51.056;3.732;2022-12-18T07:26:20;-2.10;99.90
21019;DHT22;10667;51.056;3.732;2022-12-18T07:28:46;-2.10;99.90
21019;DHT22;10667;51.056;3.732;2022-12-18T07:31:14;-2.10;99.90
21019;DHT22;10667;51.056;3.732;2022-12-18T07:33:41;-2.00;99.90
21019;DHT22;10667;51.056;3.732;2022-12-18T07:36:07;-2.00;99.90
21019;DHT22;10667;51.056;3.732;2022-12-18T07:38:34;-2.10;99.90
21019;DHT22;10667;51.056;3.732;2022-12-18T07:41:08;-2.10;99.90
21019;DHT22;10667;51.056;3.732;2022-12-18T07:43:35;-2.10;99.90
21019;DHT22;10667;51.056;3.732;2022-12-18T07:46:01;-2.10;99.90
21019;DHT22;10667;51.056;3.732;2022-12-18T07:48:28;-2.10;99.90
21019;DHT22;10667;51.056;3.732;2022-12-18T07:50:53;-2.10;99.90
21019;DHT22;10667;51.056;3.732;2022-12-18T07:53:19;-2.10;99.90
21019;DHT22;10667;51.056;3.732;2022-12-18T07:55:45;-2.10;99.90
21019;DHT22;10667;51.056;3.732;2022-12-18T07:58:10;-2.10;99.90
21019;DHT22;10667;51.056;3.732;2022-12-18T08:00:36;-2.20;99.90
21019;DHT22;10667;51.056;3.732;2022-12-18T08:03:02;-2.20;99.90
21019;DHT22;10667;51.056;3.732;2022-12-18T08:05:28;-2.20;99.90
21019;DHT22;10667;51.056;3.732;2022-12-18T08:07:54;-2.30;99.90
21019;DHT22;10667;51.056;3.732;2022-12-18T08:10:20;-2.30;99.90
21019;DHT22;10667;51.056;3.732;2022-12-18T08:12:49;-2.30;99.90
21019;DHT22;10667;51.056;3.732;2022-12-18T08:15:15;-2.30;99.90
21019;DHT22;10667;51.056;3.732;2022-12-18T08:17:40;-2.20;99.90
21019;DHT22;10667;51.056;3.732;2022-12-18T08:20:06;-2.20;99.90
21019;DHT22;10667;51.056;3.732;2022-12-18T08:22:34;-2.20;99.90
21019;DHT22;10667;51.056;3.732;2022-12-18T08:25:01;-2.30;99.90
21019;DHT22;10667;51.056;3.732;2022-12-18T08:27:26;-2.30;99.90
21019;DHT22;10667;51.056;3.732;2022-12-18T08:29:52;-2.20;99.90
21019;DHT22;10667;51.056;3.732;2022-12-18T08:32:18;-2.10;99.90
21019;DHT22;10667;51.056;3.732;2022-12-18T08:34:43;-2.00;99.90
21019;DHT22;10667;51.056;3.732;2022-12-18T08:37:09;-1.90;99.90
21019;DHT22;10667;51.056;3.732;2022-12-18T08:39:35;-1.90;99.90
21019;DHT22;10667;51.056;3.732;2022-12-18T08:42:00;-1.80;99.90
21019;DHT22;10667;51.056;3.732;2022-12-18T08:44:44;-1.80;99.90
21019;DHT22;10667;51.056;3.732;2022-12-18T08:47:10;-1.80;99.90
21019;DHT22;10667;51.056;3.732;2022-12-18T08:49:36;-1.70;99.90
21019;DHT22;10667;51.056;3.732;2022-12-18T08:52:02;-1.60;99.90
21019;DHT22;10667;51.056;3.732;2022-12-18T08:54:28;-1.50;99.90
21019;DHT22;10667;51.056;3.732;2022-12-18T08:56:54;-1.40;99.90
21019;DHT22;10667;51.056;3.732;2022-12-18T08:59:20;-1.40;99.90
21019;DHT22;10667;51.056;3.732;2022-12-18T09:01:46;-1.30;99.90
21019;DHT22;10667;51.056;3.732;2022-12-18T09:04:12;-1.10;99.90
21019;DHT22;10667;51.056;3.732;2022-12-18T09:06:38;-1.10;99.90
21019;DHT22;10667;51.056;3.732;2022-12-18T09:09:04;-1.00;99.90
21019;DHT22;10667;51.056;3.732;2022-12-18T09:11:31;-0.90;99.90
21019;DHT22;10667;51.056;3.732;2022-12-18T09:13:57;-0.80;99.90
21019;DHT22;10667;51.056;3.732;2022-12-18T09:16:24;-0.80;99.90
21019;DHT22;10667;51.056;3.732;2022-12-18T09:18:50;-0.60;99.90
21019;DHT22;10667;51.056;3.732;2022-12-18T09:21:19;-0.50;99.90
21019;DHT22;10667;51.056;3.732;2022-12-18T09:23:50;-0.50;99.90
21019;DHT22;10667;51.056;3.732;2022-12-18T09:26:15;-0.40;99.90
21019;DHT22;10667;51.056;3.732;2022-12-18T09:28:41;-0.40;99.90
21019;DHT22;10667;51.056;3.732;2022-12-18T09:31:08;-0.30;99.90
21019;DHT22;10667;51.056;3.732;2022-12-18T09:33:35;-0.20;99.90
21019;DHT22;10667;51.056;3.732;2022-12-18T09:36:04;-0.30;99.90
21019;DHT22;10667;51.056;3.732;2022-12-18T09:38:30;-0.30;99.90
21019;DHT22;10667;51.056;3.732;2022-12-18T09:44:01;-0.30;99.90
21019;DHT22;10667;51.056;3.732;2022-12-18T09:46:32;-0.30;99.90
21019;DHT22;10667;51.056;3.732;2022-12-18T09:49:02;-0.20;99.90
21019;DHT22;10667;51.056;3.732;2022-12-18T09:51:50;-0.20;99.90
21019;DHT22;10667;51.056;3.732;2022-12-18T09:54:22;-0.20;99.90
21019;DHT22;10667;51.056;3.732;2022-12-18T09:56:48;-0.20;99.90
21019;DHT22;10667;51.056;3.732;2022-12-18T09:59:27;-0.10;99.90
21019;DHT22;10667;51.056;3.732;2022-12-18T10:01:55;-0.10;99.90
21019;DHT22;10667;51.056;3.732;2022-12-18T10:04:21;0.00;99.90
21019;DHT22;10667;51.056;3.732;2022-12-18T10:07:04;0.10;99.90
21019;DHT22;10667;51.056;3.732;2022-12-18T10:09:47;0.20;99.90
21019;DHT22;10667;51.056;3.732;2022-12-18T10:12:32;0.10;99.90
21019;DHT22;10667;51.056;3.732;2022-12-18T10:15:13;0.10;99.90
21019;DHT22;10667;51.056;3.732;2022-12-18T10:17:46;0.30;99.90
21019;DHT22;10667;51.056;3.732;2022-12-18T10:20:38;0.30;99.90
21019;DHT22;10667;51.056;3.732;2022-12-18T10:23:20;0.40;99.90
21019;DHT22;10667;51.056;3.732;2022-12-18T10:25:51;0.40;99.90
21019;DHT22;10667;51.056;3.732;2022-12-18T10:28:19;0.40;99.90
21019;DHT22;10667;51.056;3.732;2022-12-18T10:30:45;0.50;99.90
21019;DHT22;10667;51.056;3.732;2022-12-18T10:33:23;0.60;99.90
21019;DHT22;10667;51.056;3.732;2022-12-18T10:35:52;0.60;99.90
21019;DHT22;10667;51.056;3.732;2022-12-18T10:43:24;0.60;99.90
21019;DHT22;10667;51.056;3.732;2022-12-18T10:48:32;0.60;99.90
21019;DHT22;10667;51.056;3.732;2022-12-18T10:50:59;0.60;99.90
21019;DHT22;10667;51.056;3.732;2022-12-18T10:53:28;0.70;99.90
21019;DHT22;10667;51.056;3.732;2022-12-18T10:55:56;0.60;99.90
21019;DHT22;10667;51.056;3.732;2022-12-18T10:58:26;0.50;99.90
21019;DHT22;10667;51.056;3.732;2022-12-18T11:01:05;0.50;99.90
21019;DHT22;10667;51.056;3.732;2022-12-18T11:03:40;0.40;99.90
21019;DHT22;10667;51.056;3.732;2022-12-18T11:06:09;0.30;99.90
21019;DHT22;10667;51.056;3.732;2022-12-18T11:08:35;0.30;99.90
21019;DHT22;10667;51.056;3.732;2022-12-18T11:11:02;0.30;99.90
21019;DHT22;10667;51.056;3.732;2022-12-18T11:13:30;0.30;99.90
21019;DHT22;10667;51.056;3.732;2022-12-18T11:15:56;0.30;99.90
21019;DHT22;10667;51.056;3.732;2022-12-18T11:18:49;0.20;99.90
21019;DHT22;10667;51.056;3.732;2022-12-18T11:21:14;0.30;99.90
21019;DHT22;10667;51.056;3.732;2022-12-18T11:23:50;0.40;99.90
21019;DHT22;10667;51.056;3.732;2022-12-18T11:26:16;0.30;99.90
21019;DHT22;10667;51.056;3.732;2022-12-18T11:28:46;0.30;99.90
21019;DHT22;10667;51.056;3.732;2022-12-18T11:31:22;0.30;99.90
21019;DHT22;10667;51.056;3.732;2022-12-18T11:33:56;0.40;99.90
21019;DHT22;10667;51.056;3.732;2022-12-18T11:36:23;0.40;99.90
21019;DHT22;10667;51.056;3.732;2022-12-18T11:38:52;0.50;99.90
21019;DHT22;10667;51.056;3.732;2022-12-18T11:41:27;0.40;99.90
21019;DHT22;10667;51.056;3.732;2022-12-18T11:44:26;0.50;99.90
21019;DHT22;10667;51.056;3.732;2022-12-18T11:49:41;0.40;99.90
21019;DHT22;10667;51.056;3.732;2022-12-18T11:52:25;0.50;99.90
21019;DHT22;10667;51.056;3.732;2022-12-18T11:54:52;0.50;99.90
21019;DHT22;10667;51.056;3.732;2022-12-18T12:02:42;0.50;99.90
21019;DHT22;10667;51.056;3.732;2022-12-18T12:16:39;0.30;99.90
21019;DHT22;10667;51.056;3.732;2022-12-18T12:19:36;0.30;99.90
21019;DHT22;10667;51.056;3.732;2022-12-18T12:25:13;0.40;99.90
21019;DHT22;10667;51.056;3.732;2022-12-18T12:27:47;0.50;99.90
21019;DHT22;10667;51.056;3.732;2022-12-18T12:30:21;0.60;99.90
21019;DHT22;10667;51.056;3.732;2022-12-18T12:33:13;0.60;99.90
21019;DHT22;10667;51.056;3.732;2022-12-18T12:36:02;0.70;99.90
21019;DHT22;10667;51.056;3.732;2022-12-18T12:38:41;0.70;99.90
21019;DHT22;10667;51.056;3.732;2022-12-18T12:41:14;0.70;99.90
21019;DHT22;10667;51.056;3.732;2022-12-18T12:44:16;0.70;99.90
21019;DHT22;10667;51.056;3.732;2022-12-18T12:46:43;0.70;99.90
21019;DHT22;10667;51.056;3.732;2022-12-18T12:49:18;0.60;99.90
21019;DHT22;10667;51.056;3.732;2022-12-18T12:51:49;0.60;99.90
21019;DHT22;10667;51.056;3.732;2022-12-18T12:54:21;0.60;99.90
21019;DHT22;10667;51.056;3.732;2022-12-18T12:57:01;0.60;99.90
21019;DHT22;10667;51.056;3.732;2022-12-18T13:02:50;0.60;99.90
21019;DHT22;10667;51.056;3.732;2022-12-18T13:05:31;0.60;99.90
21019;DHT22;10667;51.056;3.732;2022-12-18T13:08:05;0.70;99.90
21019;DHT22;10667;51.056;3.732;2022-12-18T13:10:38;0.70;99.90
21019;DHT22;10667;51.056;3.732;2022-12-18T13:13:11;0.60;99.90
21019;DHT22;10667;51.056;3.732;2022-12-18T13:15:48;0.60;99.90
21019;DHT22;10667;51.056;3.732;2022-12-18T13:18:22;0.50;99.90
21019;DHT22;10667;51.056;3.732;2022-12-18T13:21:25;0.50;99.90
21019;DHT22;10667;51.056;3.732;2022-12-18T13:23:53;0.60;99.90
21019;DHT22;10667;51.056;3.732;2022-12-18T13:33:49;0.70;99.90
21019;DHT22;10667;51.056;3.732;2022-12-18T13:36:16;0.70;99.90
21019;DHT22;10667;51.056;3.732;2022-12-18T13:38:43;0.70;99.90
21019;DHT22;10667;51.056;3.732;2022-12-18T13:41:27;0.70;99.90
21019;DHT22;10667;51.056;3.732;2022-12-18T13:46:55;0.80;99.90
21019;DHT22;10667;51.056;3.732;2022-12-18T13:49:39;0.70;99.90
21019;DHT22;10667;51.056;3.732;2022-12-18T13:52:32;0.70;99.90
21019;DHT22;10667;51.056;3.732;2022-12-18T13:55:01;0.80;99.90
21019;DHT22;10667;51.056;3.732;2022-12-18T13:57:30;0.80;99.90
21019;DHT22;10667;51.056;3.732;2022-12-18T13:59:57;0.80;99.90
21019;DHT22;10667;51.056;3.732;2022-12-18T14:02:26;0.90;99.90
21019;DHT22;10667;51.056;3.732;2022-12-18T14:04:53;1.00;99.90
21019;DHT22;10667;51.056;3.732;2022-12-18T14:07:26;0.90;99.90
21019;DHT22;10667;51.056;3.732;2022-12-18T14:09:58;0.90;99.90
21019;DHT22;10667;51.056;3.732;2022-12-18T14:12:32;0.90;99.90
21019;DHT22;10667;51.056;3.732;2022-12-18T14:18:01;1.00;99.90
21019;DHT22;10667;51.056;3.732;2022-12-18T14:20:30;0.90;99.90
21019;DHT22;10667;51.056;3.732;2022-12-18T14:22:57;0.90;99.90
21019;DHT22;10667;51.056;3.732;2022-12-18T14:25:26;0.90;99.90
21019;DHT22;10667;51.056;3.732;2022-12-18T14:28:08;1.00;99.90
21019;DHT22;10667;51.056;3.732;2022-12-18T14:30:38;0.90;99.90
21019;DHT22;10667;51.056;3.732;2022-12-18T14:33:09;1.00;99.90
21019;DHT22;10667;51.056;3.732;2022-12-18T14:35:37;1.20;99.90
21019;DHT22;10667;51.056;3.732;2022-12-18T14:38:23;1.10;99.90
21019;DHT22;10667;51.056;3.732;2022-12-18T14:41:13;1.20;99.90
21019;DHT22;10667;51.056;3.732;2022-12-18T14:43:41;1.20;99.90
21019;DHT22;10667;51.056;3.732;2022-12-18T14:46:27;1.10;99.90
21019;DHT22;10667;51.056;3.732;2022-12-18T14:48:54;1.00;99.90
21019;DHT22;10667;51.056;3.732;2022-12-18T14:51:27;1.10;99.90
21019;DHT22;10667;51.056;3.732;2022-12-18T14:54:06;1.00;99.90
21019;DHT22;10667;51.056;3.732;2022-12-18T14:56:51;1.00;99.90
21019;DHT22;10667;51.056;3.732;2022-12-18T14:59:22;1.00;99.90
21019;DHT22;10667;51.056;3.732;2022-12-18T15:01:54;1.00;99.90
21019;DHT22;10667;51.056;3.732;2022-12-18T15:07:06;1.00;99.90
21019;DHT22;10667;51.056;3.732;2022-12-18T15:09:33;1.10;99.90
21019;DHT22;10667;51.056;3.732;2022-12-18T15:12:00;1.00;99.90
21019;DHT22;10667;51.056;3.732;2022-12-18T15:14:40;1.10;99.90
21019;DHT22;10667;51.056;3.732;2022-12-18T15:17:21;1.00;99.90
21019;DHT22;10667;51.056;3.732;2022-12-18T15:19:48;1.10;99.90
21019;DHT22;10667;51.056;3.732;2022-12-18T15:22:35;1.00;99.90
21019;DHT22;10667;51.056;3.732;2022-12-18T15:25:03;1.10;99.90
21019;DHT22;10667;51.056;3.732;2022-12-18T15:27:46;1.10;99.90
21019;DHT22;10667;51.056;3.732;2022-12-18T15:30:21;1.10;99.90
21019;DHT22;10667;51.056;3.732;2022-12-18T15:32:47;1.30;99.90
21019;DHT22;10667;51.056;3.732;2022-12-18T15:35:19;1.30;99.90
21019;DHT22;10667;51.056;3.732;2022-12-18T15:37:45;1.30;99.90
21019;DHT22;10667;51.056;3.732;2022-12-18T15:40:15;1.40;99.90
21019;DHT22;10667;51.056;3.732;2022-12-18T15:42:42;1.30;99.90
21019;DHT22;10667;51.056;3.732;2022-12-18T15:45:26;1.30;99.90
21019;DHT22;10667;51.056;3.732;2022-12-18T15:47:52;1.40;99.90
21019;DHT22;10667;51.056;3.732;2022-12-18T15:50:18;1.40;99.90
21019;DHT22;10667;51.056;3.732;2022-12-18T15:52:49;1.30;99.90
21019;DHT22;10667;51.056;3.732;2022-12-18T15:55:18;1.30;99.90
21019;DHT22;10667;51.056;3.732;2022-12-18T15:58:04;1.50;99.90
21019;DHT22;10667;51.056;3.732;2022-12-18T16:00:30;1.40;99.90
21019;DHT22;10667;51.056;3.732;2022-12-18T16:02:55;1.30;99.90
21019;DHT22;10667;51.056;3.732;2022-12-18T16:05:21;1.30;99.90
21019;DHT22;10667;51.056;3.732;2022-12-18T16:07:48;1.30;99.90
21019;DHT22;10667;51.056;3.732;2022-12-18T16:10:14;1.40;99.90
21019;DHT22;10667;51.056;3.732;2022-12-18T16:12:41;1.40;99.90
21019;DHT22;10667;51.056;3.732;2022-12-18T16:15:07;1.40;99.90
21019;DHT22;10667;51.056;3.732;2022-12-18T16:17:33;1.50;99.90
21019;DHT22;10667;51.056;3.732;2022-12-18T16:19:59;1.50;99.90
21019;DHT22;10667;51.056;3.732;2022-12-18T16:22:30;1.50;99.90
21019;DHT22;10667;51.056;3.732;2022-12-18T16:24:56;1.60;99.90
21019;DHT22;10667;51.056;3.732;2022-12-18T16:27:23;1.60;99.90
21019;DHT22;10667;51.056;3.732;2022-12-18T16:29:49;1.60;99.90
21019;DHT22;10667;51.056;3.732;2022-12-18T16:32:18;1.60;99.90
21019;DHT22;10667;51.056;3.732;2022-12-18T16:34:45;1.50;99.90
21019;DHT22;10667;51.056;3.732;2022-12-18T16:37:13;1.40;99.90
21019;DHT22;10667;51.056;3.732;2022-12-18T16:39:39;1.40;99.90
21019;DHT22;10667;51.056;3.732;2022-12-18T16:42:17;1.50;99.90
21019;DHT22;10667;51.056;3.732;2022-12-18T16:44:45;1.60;99.90
21019;DHT22;10667;51.056;3.732;2022-12-18T16:47:11;1.60;99.90
21019;DHT22;10667;51.056;3.732;2022-12-18T16:49:37;1.60;99.90
21019;DHT22;10667;51.056;3.732;2022-12-18T16:52:04;1.60;99.90
21019;DHT22;10667;51.056;3.732;2022-12-18T16:54:30;1.60;99.90
21019;DHT22;10667;51.056;3.732;2022-12-18T16:56:58;1.60;99.90
21019;DHT22;10667;51.056;3.732;2022-12-18T16:59:25;1.50;99.90
21019;DHT22;10667;51.056;3.732;2022-12-18T17:01:51;1.60;99.90
21019;DHT22;10667;51.056;3.732;2022-12-18T17:04:17;1.60;99.90
21019;DHT22;10667;51.056;3.732;2022-12-18T17:06:44;1.70;99.90
21019;DHT22;10667;51.056;3.732;2022-12-18T17:09:12;1.50;99.90
21019;DHT22;10667;51.056;3.732;2022-12-18T17:11:42;1.50;99.90
21019;DHT22;10667;51.056;3.732;2022-12-18T17:14:10;1.50;99.90
21019;DHT22;10667;51.056;3.732;2022-12-18T17:16:37;1.60;99.90